sensor_id;sensor_type;location;lat;lon;timestamp;P1;durP1;ratioP1;P2;durP2;ratioP2
23394;SDS011;11870;53.084;18.206;2023-05-18T00:00:25;7.35;;;2.38;;
23394;SDS011;11870;53.084;18.206;2023-05-18T00:03:12;10.00;;;2.80;;
23394;SDS011;11870;53.084;18.206;2023-05-18T00:05:38;7.07;;;2.60;;
23394;SDS011;11870;53.084;18.206;2023-05-18T00:08:04;8.38;;;3.03;;
23394;SDS011;11870;53.084;18.206;2023-05-18T00:10:30;11.18;;;2.80;;
23394;SDS011;11870;53.084;18.206;2023-05-18T00:12:56;7.38;;;2.88;;
23394;SDS011;11870;53.084;18.206;2023-05-18T00:15:21;8.90;;;2.78;;
23394;SDS011;11870;53.084;18.206;2023-05-18T00:17:48;11.15;;;2.97;;
23394;SDS011;11870;53.084;18.206;2023-05-18T00:20:14;12.05;;;3.22;;
23394;SDS011;11870;53.084;18.206;2023-05-18T00:22:42;7.00;;;2.85;;
23394;SDS011;11870;53.084;18.206;2023-05-18T00:25:08;14.55;;;3.25;;
23394;SDS011;11870;53.084;18.206;2023-05-18T00:27:34;12.43;;;2.92;;
23394;SDS011;11870;53.084;18.206;2023-05-18T00:30:00;12.15;;;3.22;;
23394;SDS011;11870;53.084;18.206;2023-05-18T00:32:27;8.93;;;3.03;;
23394;SDS011;11870;53.084;18.206;2023-05-18T00:34:52;6.88;;;2.90;;
23394;SDS011;11870;53.084;18.206;2023-05-18T00:37:18;7.97;;;3.33;;
23394;SDS011;11870;53.084;18.206;2023-05-18T00:39:44;8.95;;;2.95;;
23394;SDS011;11870;53.084;18.206;2023-05-18T00:42:10;6.00;;;2.63;;
23394;SDS011;11870;53.084;18.206;2023-05-18T00:44:36;12.98;;;3.17;;
23394;SDS011;11870;53.084;18.206;2023-05-18T00:47:02;11.63;;;3.63;;
23394;SDS011;11870;53.084;18.206;2023-05-18T00:49:28;10.27;;;3.38;;
23394;SDS011;11870;53.084;18.206;2023-05-18T00:51:54;9.93;;;3.17;;
23394;SDS011;11870;53.084;18.206;2023-05-18T00:54:21;8.18;;;3.03;;
23394;SDS011;11870;53.084;18.206;2023-05-18T00:56:47;9.40;;;2.92;;
23394;SDS011;11870;53.084;18.206;2023-05-18T00:59:13;13.68;;;3.33;;
23394;SDS011;11870;53.084;18.206;2023-05-18T01:01:39;11.48;;;3.13;;
23394;SDS011;11870;53.084;18.206;2023-05-18T01:04:10;9.02;;;3.50;;
23394;SDS011;11870;53.084;18.206;2023-05-18T01:06:39;10.13;;;3.53;;
23394;SDS011;11870;53.084;18.206;2023-05-18T01:09:06;9.68;;;3.17;;
23394;SDS011;11870;53.084;18.206;2023-05-18T01:17:31;10.05;;;3.92;;
23394;SDS011;11870;53.084;18.206;2023-05-18T01:23:10;13.07;;;3.35;;
23394;SDS011;11870;53.084;18.206;2023-05-18T01:25:49;8.50;;;3.60;;
23394;SDS011;11870;53.084;18.206;2023-05-18T01:28:19;8.57;;;3.30;;
23394;SDS011;11870;53.084;18.206;2023-05-18T01:30:50;7.90;;;3.65;;
23394;SDS011;11870;53.084;18.206;2023-05-18T01:33:17;8.25;;;3.05;;
23394;SDS011;11870;53.084;18.206;2023-05-18T01:35:43;10.00;;;3.28;;
23394;SDS011;11870;53.084;18.206;2023-05-18T01:38:16;13.25;;;3.63;;
23394;SDS011;11870;53.084;18.206;2023-05-18T01:40:47;10.60;;;3.20;;
23394;SDS011;11870;53.084;18.206;2023-05-18T01:43:25;7.25;;;3.22;;
23394;SDS011;11870;53.084;18.206;2023-05-18T01:45:57;7.03;;;3.15;;
23394;SDS011;11870;53.084;18.206;2023-05-18T01:48:31;8.57;;;3.25;;
23394;SDS011;11870;53.084;18.206;2023-05-18T01:51:01;7.47;;;2.92;;
23394;SDS011;11870;53.084;18.206;2023-05-18T01:53:37;11.38;;;3.03;;
23394;SDS011;11870;53.084;18.206;2023-05-18T01:56:07;8.30;;;2.97;;
23394;SDS011;11870;53.084;18.206;2023-05-18T01:58:37;13.70;;;3.55;;
23394;SDS011;11870;53.084;18.206;2023-05-18T02:01:04;11.63;;;3.30;;
23394;SDS011;11870;53.084;18.206;2023-05-18T02:03:30;7.35;;;2.67;;
23394;SDS011;11870;53.084;18.206;2023-05-18T02:05:57;8.25;;;2.92;;
23394;SDS011;11870;53.084;18.206;2023-05-18T02:08:23;7.70;;;2.97;;
23394;SDS011;11870;53.084;18.206;2023-05-18T02:10:49;9.60;;;3.00;;
23394;SDS011;11870;53.084;18.206;2023-05-18T02:13:16;10.02;;;3.20;;
23394;SDS011;11870;53.084;18.206;2023-05-18T02:15:41;7.57;;;2.85;;
23394;SDS011;11870;53.084;18.206;2023-05-18T02:18:09;6.43;;;2.78;;
23394;SDS011;11870;53.084;18.206;2023-05-18T02:20:34;7.82;;;3.38;;
23394;SDS011;11870;53.084;18.206;2023-05-18T02:23:02;13.07;;;2.80;;
23394;SDS011;11870;53.084;18.206;2023-05-18T02:25:28;9.55;;;3.13;;
23394;SDS011;11870;53.084;18.206;2023-05-18T02:27:54;11.00;;;2.75;;
23394;SDS011;11870;53.084;18.206;2023-05-18T02:30:21;6.75;;;2.72;;
23394;SDS011;11870;53.084;18.206;2023-05-18T02:32:47;7.88;;;2.65;;
23394;SDS011;11870;53.084;18.206;2023-05-18T02:35:13;6.18;;;2.80;;
23394;SDS011;11870;53.084;18.206;2023-05-18T02:37:41;7.45;;;3.53;;
23394;SDS011;11870;53.084;18.206;2023-05-18T02:40:08;11.90;;;3.63;;
23394;SDS011;11870;53.084;18.206;2023-05-18T02:42:35;9.35;;;3.78;;
23394;SDS011;11870;53.084;18.206;2023-05-18T02:45:01;10.00;;;3.58;;
23394;SDS011;11870;53.084;18.206;2023-05-18T02:47:27;11.15;;;3.00;;
23394;SDS011;11870;53.084;18.206;2023-05-18T02:49:53;9.07;;;3.08;;
23394;SDS011;11870;53.084;18.206;2023-05-18T02:52:20;9.40;;;3.15;;
23394;SDS011;11870;53.084;18.206;2023-05-18T02:54:45;11.93;;;3.60;;
23394;SDS011;11870;53.084;18.206;2023-05-18T02:57:11;6.13;;;2.90;;
23394;SDS011;11870;53.084;18.206;2023-05-18T02:59:38;10.75;;;3.50;;
23394;SDS011;11870;53.084;18.206;2023-05-18T03:02:04;5.43;;;3.03;;
23394;SDS011;11870;53.084;18.206;2023-05-18T03:04:30;13.90;;;3.75;;
23394;SDS011;11870;53.084;18.206;2023-05-18T03:06:57;8.25;;;2.78;;
23394;SDS011;11870;53.084;18.206;2023-05-18T03:09:27;8.90;;;3.30;;
23394;SDS011;11870;53.084;18.206;2023-05-18T03:11:53;6.75;;;2.85;;
23394;SDS011;11870;53.084;18.206;2023-05-18T03:14:19;10.57;;;3.45;;
23394;SDS011;11870;53.084;18.206;2023-05-18T03:16:45;9.25;;;3.35;;
23394;SDS011;11870;53.084;18.206;2023-05-18T03:19:12;8.35;;;3.47;;
23394;SDS011;11870;53.084;18.206;2023-05-18T03:21:40;12.25;;;3.15;;
23394;SDS011;11870;53.084;18.206;2023-05-18T03:24:06;12.80;;;3.20;;
23394;SDS011;11870;53.084;18.206;2023-05-18T03:26:32;11.65;;;3.63;;
23394;SDS011;11870;53.084;18.206;2023-05-18T03:28:59;10.43;;;3.60;;
23394;SDS011;11870;53.084;18.206;2023-05-18T03:31:28;8.18;;;2.78;;
23394;SDS011;11870;53.084;18.206;2023-05-18T03:33:54;9.50;;;3.15;;
23394;SDS011;11870;53.084;18.206;2023-05-18T03:36:20;10.35;;;3.22;;
23394;SDS011;11870;53.084;18.206;2023-05-18T03:38:46;10.50;;;2.90;;
23394;SDS011;11870;53.084;18.206;2023-05-18T03:41:13;13.07;;;3.38;;
23394;SDS011;11870;53.084;18.206;2023-05-18T03:43:39;11.50;;;3.50;;
23394;SDS011;11870;53.084;18.206;2023-05-18T03:46:05;11.57;;;3.75;;
23394;SDS011;11870;53.084;18.206;2023-05-18T03:48:31;7.25;;;2.88;;
23394;SDS011;11870;53.084;18.206;2023-05-18T03:50:57;8.82;;;3.47;;
23394;SDS011;11870;53.084;18.206;2023-05-18T03:53:23;5.13;;;3.08;;
23394;SDS011;11870;53.084;18.206;2023-05-18T03:55:50;10.50;;;3.67;;
23394;SDS011;11870;53.084;18.206;2023-05-18T03:58:16;12.38;;;3.33;;
23394;SDS011;11870;53.084;18.206;2023-05-18T04:00:44;8.95;;;3.55;;
23394;SDS011;11870;53.084;18.206;2023-05-18T04:03:11;8.35;;;3.80;;
23394;SDS011;11870;53.084;18.206;2023-05-18T04:05:40;12.40;;;3.70;;
23394;SDS011;11870;53.084;18.206;2023-05-18T04:08:10;9.35;;;3.63;;
23394;SDS011;11870;53.084;18.206;2023-05-18T04:10:40;7.82;;;3.17;;
23394;SDS011;11870;53.084;18.206;2023-05-18T04:13:07;11.43;;;3.65;;
23394;SDS011;11870;53.084;18.206;2023-05-18T04:15:33;8.48;;;4.22;;
23394;SDS011;11870;53.084;18.206;2023-05-18T04:18:00;9.02;;;3.47;;
23394;SDS011;11870;53.084;18.206;2023-05-18T04:20:27;9.23;;;2.78;;
23394;SDS011;11870;53.084;18.206;2023-05-18T04:22:53;7.30;;;2.10;;
23394;SDS011;11870;53.084;18.206;2023-05-18T04:25:22;7.88;;;2.28;;
23394;SDS011;11870;53.084;18.206;2023-05-18T04:27:52;9.07;;;2.88;;
23394;SDS011;11870;53.084;18.206;2023-05-18T04:30:19;7.05;;;2.30;;
23394;SDS011;11870;53.084;18.206;2023-05-18T04:32:47;5.40;;;1.70;;
23394;SDS011;11870;53.084;18.206;2023-05-18T04:35:14;9.05;;;1.95;;
23394;SDS011;11870;53.084;18.206;2023-05-18T04:37:40;8.55;;;2.33;;
23394;SDS011;11870;53.084;18.206;2023-05-18T04:40:07;7.65;;;1.85;;
23394;SDS011;11870;53.084;18.206;2023-05-18T04:42:41;4.20;;;1.60;;
23394;SDS011;11870;53.084;18.206;2023-05-18T04:45:12;8.48;;;1.95;;
23394;SDS011;11870;53.084;18.206;2023-05-18T04:47:40;5.90;;;1.83;;
23394;SDS011;11870;53.084;18.206;2023-05-18T04:50:07;5.80;;;1.83;;
23394;SDS011;11870;53.084;18.206;2023-05-18T04:52:33;6.22;;;2.30;;
23394;SDS011;11870;53.084;18.206;2023-05-18T04:55:01;6.88;;;1.92;;
23394;SDS011;11870;53.084;18.206;2023-05-18T04:57:27;4.32;;;1.42;;
23394;SDS011;11870;53.084;18.206;2023-05-18T04:59:53;8.40;;;2.88;;
23394;SDS011;11870;53.084;18.206;2023-05-18T05:02:19;6.38;;;3.20;;
23394;SDS011;11870;53.084;18.206;2023-05-18T05:04:46;8.25;;;1.90;;
23394;SDS011;11870;53.084;18.206;2023-05-18T05:07:11;5.78;;;2.20;;
23394;SDS011;11870;53.084;18.206;2023-05-18T05:09:38;4.50;;;1.75;;
23394;SDS011;11870;53.084;18.206;2023-05-18T05:12:06;7.75;;;1.42;;
23394;SDS011;11870;53.084;18.206;2023-05-18T05:14:32;6.90;;;2.63;;
23394;SDS011;11870;53.084;18.206;2023-05-18T05:16:58;4.55;;;1.60;;
23394;SDS011;11870;53.084;18.206;2023-05-18T05:19:24;7.03;;;2.92;;
23394;SDS011;11870;53.084;18.206;2023-05-18T05:21:50;15.20;;;2.30;;
23394;SDS011;11870;53.084;18.206;2023-05-18T05:24:16;7.50;;;3.03;;
23394;SDS011;11870;53.084;18.206;2023-05-18T05:26:42;5.75;;;2.17;;
23394;SDS011;11870;53.084;18.206;2023-05-18T05:29:08;7.75;;;1.40;;
23394;SDS011;11870;53.084;18.206;2023-05-18T05:31:33;2.67;;;1.30;;
23394;SDS011;11870;53.084;18.206;2023-05-18T05:33:59;4.00;;;1.40;;
23394;SDS011;11870;53.084;18.206;2023-05-18T05:36:25;4.88;;;1.83;;
23394;SDS011;11870;53.084;18.206;2023-05-18T05:38:51;6.25;;;2.38;;
23394;SDS011;11870;53.084;18.206;2023-05-18T05:41:18;6.72;;;1.98;;
23394;SDS011;11870;53.084;18.206;2023-05-18T05:43:44;3.85;;;2.00;;
23394;SDS011;11870;53.084;18.206;2023-05-18T05:46:10;4.32;;;1.95;;
23394;SDS011;11870;53.084;18.206;2023-05-18T05:48:36;6.78;;;2.58;;
23394;SDS011;11870;53.084;18.206;2023-05-18T05:51:02;5.70;;;2.40;;
23394;SDS011;11870;53.084;18.206;2023-05-18T05:53:28;3.30;;;1.55;;
23394;SDS011;11870;53.084;18.206;2023-05-18T05:55:54;3.70;;;1.73;;
23394;SDS011;11870;53.084;18.206;2023-05-18T05:58:20;3.42;;;1.63;;
23394;SDS011;11870;53.084;18.206;2023-05-18T06:00:45;4.95;;;2.00;;
23394;SDS011;11870;53.084;18.206;2023-05-18T06:03:11;4.22;;;1.67;;
23394;SDS011;11870;53.084;18.206;2023-05-18T06:05:37;2.88;;;1.30;;
23394;SDS011;11870;53.084;18.206;2023-05-18T06:08:03;5.95;;;1.65;;
23394;SDS011;11870;53.084;18.206;2023-05-18T06:10:29;5.68;;;1.45;;
23394;SDS011;11870;53.084;18.206;2023-05-18T06:12:55;4.00;;;1.83;;
23394;SDS011;11870;53.084;18.206;2023-05-18T06:15:21;3.38;;;1.85;;
23394;SDS011;11870;53.084;18.206;2023-05-18T06:17:47;2.78;;;1.40;;
23394;SDS011;11870;53.084;18.206;2023-05-18T06:20:13;2.95;;;1.08;;
23394;SDS011;11870;53.084;18.206;2023-05-18T06:22:39;2.33;;;1.17;;
23394;SDS011;11870;53.084;18.206;2023-05-18T06:25:05;3.35;;;1.50;;
23394;SDS011;11870;53.084;18.206;2023-05-18T06:27:32;3.20;;;1.55;;
23394;SDS011;11870;53.084;18.206;2023-05-18T06:29:58;2.80;;;1.20;;
23394;SDS011;11870;53.084;18.206;2023-05-18T06:32:24;2.20;;;1.20;;
23394;SDS011;11870;53.084;18.206;2023-05-18T06:34:50;4.82;;;1.35;;
23394;SDS011;11870;53.084;18.206;2023-05-18T06:37:17;4.68;;;1.35;;
23394;SDS011;11870;53.084;18.206;2023-05-18T06:39:44;2.28;;;1.20;;
23394;SDS011;11870;53.084;18.206;2023-05-18T06:42:10;2.85;;;1.17;;
23394;SDS011;11870;53.084;18.206;2023-05-18T06:44:36;4.22;;;1.35;;
23394;SDS011;11870;53.084;18.206;2023-05-18T06:47:02;1.20;;;1.08;;
23394;SDS011;11870;53.084;18.206;2023-05-18T06:49:27;2.40;;;1.25;;
23394;SDS011;11870;53.084;18.206;2023-05-18T06:51:54;1.83;;;1.17;;
23394;SDS011;11870;53.084;18.206;2023-05-18T06:54:19;2.58;;;1.40;;
23394;SDS011;11870;53.084;18.206;2023-05-18T06:56:46;1.73;;;1.08;;
23394;SDS011;11870;53.084;18.206;2023-05-18T06:59:12;2.17;;;1.10;;
23394;SDS011;11870;53.084;18.206;2023-05-18T07:01:38;1.30;;;0.93;;
23394;SDS011;11870;53.084;18.206;2023-05-18T07:04:04;2.83;;;1.00;;
23394;SDS011;11870;53.084;18.206;2023-05-18T07:06:30;1.88;;;1.10;;
23394;SDS011;11870;53.084;18.206;2023-05-18T07:08:56;2.75;;;1.10;;
23394;SDS011;11870;53.084;18.206;2023-05-18T07:11:22;2.70;;;1.10;;
23394;SDS011;11870;53.084;18.206;2023-05-18T07:13:47;1.25;;;0.90;;
23394;SDS011;11870;53.084;18.206;2023-05-18T07:16:13;0.95;;;0.80;;
23394;SDS011;11870;53.084;18.206;2023-05-18T07:18:39;1.88;;;1.00;;
23394;SDS011;11870;53.084;18.206;2023-05-18T07:21:06;1.05;;;0.90;;
23394;SDS011;11870;53.084;18.206;2023-05-18T07:23:32;2.42;;;1.00;;
23394;SDS011;11870;53.084;18.206;2023-05-18T07:25:59;1.67;;;1.00;;
23394;SDS011;11870;53.084;18.206;2023-05-18T07:28:25;1.20;;;1.00;;
23394;SDS011;11870;53.084;18.206;2023-05-18T07:30:51;3.10;;;0.90;;
23394;SDS011;11870;53.084;18.206;2023-05-18T07:33:17;1.23;;;0.88;;
23394;SDS011;11870;53.084;18.206;2023-05-18T07:35:43;2.28;;;0.90;;
23394;SDS011;11870;53.084;18.206;2023-05-18T07:38:09;1.33;;;0.88;;
23394;SDS011;11870;53.084;18.206;2023-05-18T07:40:35;2.53;;;0.80;;
23394;SDS011;11870;53.084;18.206;2023-05-18T07:43:01;1.55;;;0.88;;
23394;SDS011;11870;53.084;18.206;2023-05-18T07:45:27;1.73;;;1.00;;
23394;SDS011;11870;53.084;18.206;2023-05-18T07:47:53;1.80;;;0.90;;
23394;SDS011;11870;53.084;18.206;2023-05-18T07:50:19;2.35;;;0.80;;
23394;SDS011;11870;53.084;18.206;2023-05-18T07:52:45;2.25;;;1.00;;
23394;SDS011;11870;53.084;18.206;2023-05-18T07:55:11;0.93;;;0.80;;
23394;SDS011;11870;53.084;18.206;2023-05-18T07:57:38;1.23;;;0.88;;
23394;SDS011;11870;53.084;18.206;2023-05-18T08:00:04;1.73;;;1.20;;
23394;SDS011;11870;53.084;18.206;2023-05-18T08:02:33;2.00;;;0.93;;
23394;SDS011;11870;53.084;18.206;2023-05-18T08:04:59;1.58;;;0.90;;
23394;SDS011;11870;53.084;18.206;2023-05-18T08:07:25;1.52;;;1.13;;
23394;SDS011;11870;53.084;18.206;2023-05-18T08:09:54;3.50;;;1.20;;
23394;SDS011;11870;53.084;18.206;2023-05-18T08:12:21;2.53;;;1.05;;
23394;SDS011;11870;53.084;18.206;2023-05-18T08:14:47;1.83;;;1.17;;
23394;SDS011;11870;53.084;18.206;2023-05-18T08:17:13;2.58;;;1.10;;
23394;SDS011;11870;53.084;18.206;2023-05-18T08:19:39;1.88;;;1.17;;
23394;SDS011;11870;53.084;18.206;2023-05-18T08:22:05;3.35;;;0.90;;
23394;SDS011;11870;53.084;18.206;2023-05-18T08:24:31;3.20;;;1.00;;
23394;SDS011;11870;53.084;18.206;2023-05-18T08:26:58;3.60;;;1.30;;
23394;SDS011;11870;53.084;18.206;2023-05-18T08:29:24;1.65;;;1.10;;
23394;SDS011;11870;53.084;18.206;2023-05-18T08:31:49;1.73;;;1.02;;
23394;SDS011;11870;53.084;18.206;2023-05-18T08:34:16;2.03;;;1.10;;
23394;SDS011;11870;53.084;18.206;2023-05-18T08:36:42;2.25;;;1.13;;
23394;SDS011;11870;53.084;18.206;2023-05-18T08:39:10;1.77;;;0.90;;
23394;SDS011;11870;53.084;18.206;2023-05-18T08:41:47;1.55;;;1.02;;
23394;SDS011;11870;53.084;18.206;2023-05-18T08:44:44;1.60;;;1.27;;
23394;SDS011;11870;53.084;18.206;2023-05-18T08:47:26;2.70;;;1.10;;
23394;SDS011;11870;53.084;18.206;2023-05-18T08:49:55;1.98;;;1.10;;
23394;SDS011;11870;53.084;18.206;2023-05-18T08:52:23;1.55;;;1.00;;
23394;SDS011;11870;53.084;18.206;2023-05-18T08:54:52;1.70;;;1.00;;
23394;SDS011;11870;53.084;18.206;2023-05-18T08:57:19;3.00;;;1.10;;
23394;SDS011;11870;53.084;18.206;2023-05-18T08:59:46;1.80;;;1.17;;
23394;SDS011;11870;53.084;18.206;2023-05-18T09:02:14;2.63;;;1.00;;
23394;SDS011;11870;53.084;18.206;2023-05-18T09:04:41;2.67;;;1.10;;
23394;SDS011;11870;53.084;18.206;2023-05-18T09:07:09;2.92;;;1.10;;
23394;SDS011;11870;53.084;18.206;2023-05-18T09:09:35;4.35;;;1.40;;
23394;SDS011;11870;53.084;18.206;2023-05-18T09:12:02;1.25;;;1.00;;
23394;SDS011;11870;53.084;18.206;2023-05-18T09:14:30;1.98;;;0.90;;
23394;SDS011;11870;53.084;18.206;2023-05-18T09:16:56;1.60;;;1.02;;
23394;SDS011;11870;53.084;18.206;2023-05-18T09:19:22;2.95;;;1.50;;
23394;SDS011;11870;53.084;18.206;2023-05-18T09:21:49;2.22;;;1.10;;
23394;SDS011;11870;53.084;18.206;2023-05-18T09:24:15;1.08;;;0.93;;
23394;SDS011;11870;53.084;18.206;2023-05-18T09:26:43;1.30;;;0.95;;
23394;SDS011;11870;53.084;18.206;2023-05-18T09:29:17;1.27;;;1.02;;
23394;SDS011;11870;53.084;18.206;2023-05-18T09:31:45;1.95;;;1.10;;
23394;SDS011;11870;53.084;18.206;2023-05-18T09:34:12;3.05;;;1.15;;
23394;SDS011;11870;53.084;18.206;2023-05-18T09:36:38;2.35;;;1.30;;
23394;SDS011;11870;53.084;18.206;2023-05-18T09:39:10;1.15;;;1.02;;
23394;SDS011;11870;53.084;18.206;2023-05-18T09:41:37;1.17;;;1.00;;
23394;SDS011;11870;53.084;18.206;2023-05-18T09:44:06;1.17;;;1.00;;
23394;SDS011;11870;53.084;18.206;2023-05-18T09:46:39;2.60;;;1.27;;
23394;SDS011;11870;53.084;18.206;2023-05-18T09:49:06;2.22;;;1.15;;
23394;SDS011;11870;53.084;18.206;2023-05-18T09:51:36;2.00;;;1.02;;
23394;SDS011;11870;53.084;18.206;2023-05-18T09:54:03;2.92;;;0.90;;
23394;SDS011;11870;53.084;18.206;2023-05-18T09:56:33;1.40;;;0.90;;
23394;SDS011;11870;53.084;18.206;2023-05-18T09:59:07;2.90;;;1.00;;
23394;SDS011;11870;53.084;18.206;2023-05-18T10:01:34;5.88;;;1.08;;
23394;SDS011;11870;53.084;18.206;2023-05-18T10:04:04;2.58;;;0.73;;
23394;SDS011;11870;53.084;18.206;2023-05-18T10:06:30;2.53;;;0.98;;
23394;SDS011;11870;53.084;18.206;2023-05-18T10:08:57;1.73;;;0.82;;
23394;SDS011;11870;53.084;18.206;2023-05-18T10:11:29;9.02;;;0.90;;
23394;SDS011;11870;53.084;18.206;2023-05-18T10:13:56;1.42;;;0.80;;
23394;SDS011;11870;53.084;18.206;2023-05-18T10:16:23;2.03;;;1.00;;
23394;SDS011;11870;53.084;18.206;2023-05-18T10:18:50;1.48;;;0.77;;
23394;SDS011;11870;53.084;18.206;2023-05-18T10:21:18;1.77;;;0.90;;
23394;SDS011;11870;53.084;18.206;2023-05-18T10:23:45;3.13;;;0.93;;
23394;SDS011;11870;53.084;18.206;2023-05-18T10:26:15;2.70;;;1.00;;
23394;SDS011;11870;53.084;18.206;2023-05-18T10:28:48;1.33;;;0.90;;
23394;SDS011;11870;53.084;18.206;2023-05-18T10:31:15;3.08;;;1.00;;
23394;SDS011;11870;53.084;18.206;2023-05-18T10:33:41;3.30;;;0.95;;
23394;SDS011;11870;53.084;18.206;2023-05-18T10:36:08;1.67;;;0.70;;
23394;SDS011;11870;53.084;18.206;2023-05-18T10:38:36;1.52;;;0.95;;
23394;SDS011;11870;53.084;18.206;2023-05-18T10:41:07;2.10;;;0.80;;
23394;SDS011;11870;53.084;18.206;2023-05-18T10:43:36;1.60;;;0.82;;
23394;SDS011;11870;53.084;18.206;2023-05-18T10:46:02;2.05;;;0.90;;
23394;SDS011;11870;53.084;18.206;2023-05-18T10:48:31;2.10;;;0.95;;
23394;SDS011;11870;53.084;18.206;2023-05-18T10:51:03;4.43;;;0.80;;
23394;SDS011;11870;53.084;18.206;2023-05-18T10:53:31;1.00;;;0.90;;
23394;SDS011;11870;53.084;18.206;2023-05-18T10:55:57;2.42;;;0.75;;
23394;SDS011;11870;53.084;18.206;2023-05-18T10:58:24;2.65;;;1.02;;
23394;SDS011;11870;53.084;18.206;2023-05-18T11:01:01;2.05;;;0.80;;
23394;SDS011;11870;53.084;18.206;2023-05-18T11:03:31;1.10;;;0.80;;
23394;SDS011;11870;53.084;18.206;2023-05-18T11:08:55;2.42;;;1.08;;
23394;SDS011;11870;53.084;18.206;2023-05-18T11:11:23;3.88;;;1.17;;
23394;SDS011;11870;53.084;18.206;2023-05-18T11:14:00;3.53;;;0.90;;
23394;SDS011;11870;53.084;18.206;2023-05-18T11:16:33;3.17;;;1.80;;
23394;SDS011;11870;53.084;18.206;2023-05-18T11:19:06;1.35;;;0.80;;
23394;SDS011;11870;53.084;18.206;2023-05-18T11:29:29;3.05;;;1.00;;
23394;SDS011;11870;53.084;18.206;2023-05-18T11:31:59;2.75;;;0.70;;
23394;SDS011;11870;53.084;18.206;2023-05-18T11:34:44;1.88;;;0.77;;
23394;SDS011;11870;53.084;18.206;2023-05-18T11:37:14;1.25;;;0.90;;
23394;SDS011;11870;53.084;18.206;2023-05-18T11:40:01;2.15;;;0.98;;
23394;SDS011;11870;53.084;18.206;2023-05-18T11:42:32;3.05;;;1.10;;
23394;SDS011;11870;53.084;18.206;2023-05-18T11:45:08;1.23;;;0.85;;
23394;SDS011;11870;53.084;18.206;2023-05-18T11:47:36;1.83;;;0.90;;
23394;SDS011;11870;53.084;18.206;2023-05-18T11:50:07;2.40;;;0.90;;
23394;SDS011;11870;53.084;18.206;2023-05-18T11:52:44;1.92;;;0.90;;
23394;SDS011;11870;53.084;18.206;2023-05-18T11:55:12;1.38;;;0.85;;
23394;SDS011;11870;53.084;18.206;2023-05-18T11:57:42;2.10;;;1.10;;
23394;SDS011;11870;53.084;18.206;2023-05-18T12:00:12;3.67;;;0.93;;
23394;SDS011;11870;53.084;18.206;2023-05-18T12:02:43;7.03;;;2.90;;
23394;SDS011;11870;53.084;18.206;2023-05-18T12:05:11;1.13;;;0.85;;
23394;SDS011;11870;53.084;18.206;2023-05-18T12:07:38;1.83;;;0.80;;
23394;SDS011;11870;53.084;18.206;2023-05-18T12:10:09;1.55;;;0.80;;
23394;SDS011;11870;53.084;18.206;2023-05-18T12:12:36;1.30;;;0.90;;
23394;SDS011;11870;53.084;18.206;2023-05-18T12:15:04;1.58;;;0.80;;
23394;SDS011;11870;53.084;18.206;2023-05-18T12:20:06;1.90;;;0.90;;
23394;SDS011;11870;53.084;18.206;2023-05-18T12:22:37;1.55;;;0.90;;
23394;SDS011;11870;53.084;18.206;2023-05-18T12:25:07;1.63;;;0.90;;
23394;SDS011;11870;53.084;18.206;2023-05-18T12:27:40;1.63;;;0.70;;
23394;SDS011;11870;53.084;18.206;2023-05-18T12:30:11;3.58;;;0.70;;
23394;SDS011;11870;53.084;18.206;2023-05-18T12:32:51;1.67;;;0.80;;
23394;SDS011;11870;53.084;18.206;2023-05-18T12:35:24;1.40;;;0.70;;
23394;SDS011;11870;53.084;18.206;2023-05-18T12:37:54;1.38;;;0.90;;
23394;SDS011;11870;53.084;18.206;2023-05-18T12:40:24;2.30;;;0.70;;
23394;SDS011;11870;53.084;18.206;2023-05-18T12:43:01;2.80;;;1.20;;
23394;SDS011;11870;53.084;18.206;2023-05-18T12:45:32;1.73;;;0.93;;
23394;SDS011;11870;53.084;18.206;2023-05-18T12:48:04;5.00;;;0.90;;
23394;SDS011;11870;53.084;18.206;2023-05-18T12:50:32;3.42;;;0.95;;
23394;SDS011;11870;53.084;18.206;2023-05-18T12:52:58;2.40;;;0.90;;
23394;SDS011;11870;53.084;18.206;2023-05-18T12:55:26;1.58;;;0.88;;
23394;SDS011;11870;53.084;18.206;2023-05-18T12:57:57;3.50;;;1.08;;
23394;SDS011;11870;53.084;18.206;2023-05-18T13:00:23;2.00;;;0.98;;
23394;SDS011;11870;53.084;18.206;2023-05-18T13:02:49;2.15;;;0.80;;
23394;SDS011;11870;53.084;18.206;2023-05-18T13:05:22;2.53;;;1.15;;
23394;SDS011;11870;53.084;18.206;2023-05-18T13:07:48;2.38;;;0.93;;
23394;SDS011;11870;53.084;18.206;2023-05-18T13:10:15;2.08;;;1.00;;
23394;SDS011;11870;53.084;18.206;2023-05-18T13:12:45;3.20;;;1.00;;
23394;SDS011;11870;53.084;18.206;2023-05-18T13:15:22;4.32;;;1.00;;
23394;SDS011;11870;53.084;18.206;2023-05-18T13:18:02;1.60;;;1.10;;
23394;SDS011;11870;53.084;18.206;2023-05-18T13:23:06;4.43;;;1.95;;
23394;SDS011;11870;53.084;18.206;2023-05-18T13:25:36;2.08;;;1.10;;
23394;SDS011;11870;53.084;18.206;2023-05-18T13:28:03;2.20;;;1.10;;
23394;SDS011;11870;53.084;18.206;2023-05-18T13:30:30;5.68;;;1.27;;
23394;SDS011;11870;53.084;18.206;2023-05-18T13:32:58;1.95;;;0.98;;
23394;SDS011;11870;53.084;18.206;2023-05-18T13:35:24;4.45;;;0.90;;
23394;SDS011;11870;53.084;18.206;2023-05-18T13:37:50;3.17;;;1.20;;
23394;SDS011;11870;53.084;18.206;2023-05-18T13:40:17;2.25;;;1.33;;
23394;SDS011;11870;53.084;18.206;2023-05-18T13:42:44;2.50;;;1.10;;
23394;SDS011;11870;53.084;18.206;2023-05-18T13:45:11;2.72;;;1.17;;
23394;SDS011;11870;53.084;18.206;2023-05-18T13:47:38;2.90;;;1.00;;
23394;SDS011;11870;53.084;18.206;2023-05-18T13:50:07;2.50;;;1.02;;
23394;SDS011;11870;53.084;18.206;2023-05-18T13:52:34;1.02;;;0.77;;
23394;SDS011;11870;53.084;18.206;2023-05-18T13:55:01;6.57;;;0.95;;
23394;SDS011;11870;53.084;18.206;2023-05-18T13:57:29;2.00;;;1.23;;
23394;SDS011;11870;53.084;18.206;2023-05-18T13:59:56;1.85;;;0.70;;
23394;SDS011;11870;53.084;18.206;2023-05-18T14:02:24;1.50;;;1.00;;
23394;SDS011;11870;53.084;18.206;2023-05-18T14:04:51;3.00;;;0.80;;
23394;SDS011;11870;53.084;18.206;2023-05-18T14:07:17;3.38;;;0.90;;
23394;SDS011;11870;53.084;18.206;2023-05-18T14:09:51;2.63;;;0.90;;
23394;SDS011;11870;53.084;18.206;2023-05-18T14:12:16;3.50;;;1.00;;
23394;SDS011;11870;53.084;18.206;2023-05-18T14:14:43;1.77;;;1.00;;
23394;SDS011;11870;53.084;18.206;2023-05-18T14:17:09;1.20;;;0.70;;
23394;SDS011;11870;53.084;18.206;2023-05-18T14:19:35;1.63;;;0.80;;
23394;SDS011;11870;53.084;18.206;2023-05-18T14:22:01;1.02;;;0.80;;
23394;SDS011;11870;53.084;18.206;2023-05-18T14:24:27;3.15;;;1.15;;
23394;SDS011;11870;53.084;18.206;2023-05-18T14:26:53;1.80;;;0.80;;
23394;SDS011;11870;53.084;18.206;2023-05-18T14:29:19;2.80;;;0.82;;
23394;SDS011;11870;53.084;18.206;2023-05-18T14:31:45;2.40;;;0.90;;
23394;SDS011;11870;53.084;18.206;2023-05-18T14:34:11;0.80;;;0.77;;
23394;SDS011;11870;53.084;18.206;2023-05-18T14:36:37;2.22;;;0.90;;
23394;SDS011;11870;53.084;18.206;2023-05-18T14:39:04;3.50;;;1.00;;
23394;SDS011;11870;53.084;18.206;2023-05-18T14:41:29;1.83;;;0.82;;
23394;SDS011;11870;53.084;18.206;2023-05-18T14:43:55;3.35;;;0.70;;
23394;SDS011;11870;53.084;18.206;2023-05-18T14:46:25;2.78;;;0.90;;
23394;SDS011;11870;53.084;18.206;2023-05-18T14:48:51;1.17;;;0.70;;
23394;SDS011;11870;53.084;18.206;2023-05-18T14:51:17;2.47;;;1.27;;
23394;SDS011;11870;53.084;18.206;2023-05-18T14:53:43;1.00;;;0.73;;
23394;SDS011;11870;53.084;18.206;2023-05-18T14:56:10;1.65;;;0.80;;
23394;SDS011;11870;53.084;18.206;2023-05-18T14:58:36;1.13;;;0.90;;
23394;SDS011;11870;53.084;18.206;2023-05-18T15:01:02;3.58;;;1.00;;